sensor_id;sensor_type;location;lat;lon;timestamp;pressure;altitude;pressure_sealevel;temperature;humidity
41202;BME280;26936;50.524;8.684;2023-04-23T00:00:06;98593.56;;;13.36;100.00
41202;BME280;26936;50.524;8.684;2023-04-23T00:02:36;98590.91;;;13.32;100.00
41202;BME280;26936;50.524;8.684;2023-04-23T00:05:04;98589.06;;;13.29;100.00
41202;BME280;26936;50.524;8.684;2023-04-23T00:07:31;98588.78;;;13.27;100.00
41202;BME280;26936;50.524;8.684;2023-04-23T00:09:58;98586.91;;;13.39;100.00
41202;BME280;26936;50.524;8.684;2023-04-23T00:12:24;98579.72;;;13.23;100.00
41202;BME280;26936;50.524;8.684;2023-04-23T00:14:49;98587.00;;;13.30;100.00
41202;BME280;26936;50.524;8.684;2023-04-23T00:17:15;98582.53;;;13.23;100.00
41202;BME280;26936;50.524;8.684;2023-04-23T00:19:40;98584.69;;;13.14;100.00
41202;BME280;26936;50.524;8.684;2023-04-23T00:22:05;98582.94;;;13.16;100.00
41202;BME280;26936;50.524;8.684;2023-04-23T00:24:31;98586.72;;;13.13;100.00
41202;BME280;26936;50.524;8.684;2023-04-23T00:26:58;98586.53;;;13.17;100.00
41202;BME280;26936;50.524;8.684;2023-04-23T00:29:23;98580.53;;;13.09;100.00
41202;BME280;26936;50.524;8.684;2023-04-23T00:31:48;98577.50;;;13.13;100.00
41202;BME280;26936;50.524;8.684;2023-04-23T00:34:14;98582.97;;;13.02;100.00
41202;BME280;26936;50.524;8.684;2023-04-23T00:36:39;98579.53;;;13.12;100.00
41202;BME280;26936;50.524;8.684;2023-04-23T00:39:05;98577.00;;;13.00;100.00
41202;BME280;26936;50.524;8.684;2023-04-23T00:41:30;98576.53;;;13.01;100.00
41202;BME280;26936;50.524;8.684;2023-04-23T00:43:56;98571.19;;;13.03;100.00
41202;BME280;26936;50.524;8.684;2023-04-23T00:46:23;98575.34;;;12.93;100.00
41202;BME280;26936;50.524;8.684;2023-04-23T00:48:49;98575.84;;;12.77;100.00
41202;BME280;26936;50.524;8.684;2023-04-23T00:51:15;98569.78;;;12.84;100.00
41202;BME280;26936;50.524;8.684;2023-04-23T00:53:41;98571.22;;;12.94;100.00
41202;BME280;26936;50.524;8.684;2023-04-23T00:56:06;98569.78;;;12.84;100.00
41202;BME280;26936;50.524;8.684;2023-04-23T00:58:33;98573.09;;;12.83;100.00
41202;BME280;26936;50.524;8.684;2023-04-23T01:00:58;98568.41;;;12.80;100.00
41202;BME280;26936;50.524;8.684;2023-04-23T01:03:25;98568.41;;;12.80;100.00
41202;BME280;26936;50.524;8.684;2023-04-23T01:05:50;98564.91;;;12.70;100.00
41202;BME280;26936;50.524;8.684;2023-04-23T01:08:16;98568.72;;;12.67;100.00
41202;BME280;26936;50.524;8.684;2023-04-23T01:10:44;98567.84;;;12.76;100.00
41202;BME280;26936;50.524;8.684;2023-04-23T01:13:11;98573.00;;;12.77;100.00
41202;BME280;26936;50.524;8.684;2023-04-23T01:15:37;98574.25;;;12.76;100.00
41202;BME280;26936;50.524;8.684;2023-04-23T01:18:02;98573.09;;;12.68;100.00
41202;BME280;26936;50.524;8.684;2023-04-23T01:20:28;98571.34;;;12.71;100.00
41202;BME280;26936;50.524;8.684;2023-04-23T01:22:54;98573.38;;;12.70;100.00
41202;BME280;26936;50.524;8.684;2023-04-23T01:25:20;98578.75;;;12.68;100.00
41202;BME280;26936;50.524;8.684;2023-04-23T01:27:45;98576.03;;;12.59;100.00
41202;BME280;26936;50.524;8.684;2023-04-23T01:30:11;98583.50;;;12.62;100.00
41202;BME280;26936;50.524;8.684;2023-04-23T01:32:37;98577.56;;;12.60;100.00
41202;BME280;26936;50.524;8.684;2023-04-23T01:35:03;98587.41;;;12.65;100.00
41202;BME280;26936;50.524;8.684;2023-04-23T01:37:29;98579.91;;;12.62;100.00
41202;BME280;26936;50.524;8.684;2023-04-23T01:39:55;98584.75;;;12.61;100.00
41202;BME280;26936;50.524;8.684;2023-04-23T01:42:20;98593.25;;;12.61;100.00
41202;BME280;26936;50.524;8.684;2023-04-23T01:44:47;98596.66;;;12.65;100.00
41202;BME280;26936;50.524;8.684;2023-04-23T01:47:13;98598.69;;;12.65;100.00
41202;BME280;26936;50.524;8.684;2023-04-23T01:49:38;98595.13;;;12.64;100.00
41202;BME280;26936;50.524;8.684;2023-04-23T01:52:04;98601.72;;;12.61;100.00
41202;BME280;26936;50.524;8.684;2023-04-23T01:54:29;98598.13;;;12.61;100.00
41202;BME280;26936;50.524;8.684;2023-04-23T01:56:54;98595.00;;;12.59;100.00
41202;BME280;26936;50.524;8.684;2023-04-23T01:59:20;98601.44;;;12.59;100.00
41202;BME280;26936;50.524;8.684;2023-04-23T02:01:47;98598.63;;;12.59;100.00
41202;BME280;26936;50.524;8.684;2023-04-23T02:04:13;98597.72;;;12.53;100.00
41202;BME280;26936;50.524;8.684;2023-04-23T02:06:41;98597.72;;;12.53;100.00
41202;BME280;26936;50.524;8.684;2023-04-23T02:09:07;98612.03;;;12.50;100.00
41202;BME280;26936;50.524;8.684;2023-04-23T02:11:32;98608.13;;;12.47;100.00
41202;BME280;26936;50.524;8.684;2023-04-23T02:13:59;98611.13;;;12.44;100.00
41202;BME280;26936;50.524;8.684;2023-04-23T02:16:25;98610.06;;;12.41;100.00
41202;BME280;26936;50.524;8.684;2023-04-23T02:18:52;98609.09;;;12.44;100.00
41202;BME280;26936;50.524;8.684;2023-04-23T02:21:17;98607.81;;;12.45;100.00
41202;BME280;26936;50.524;8.684;2023-04-23T02:23:43;98604.72;;;12.43;100.00
41202;BME280;26936;50.524;8.684;2023-04-23T02:26:08;98612.78;;;12.36;100.00
41202;BME280;26936;50.524;8.684;2023-04-23T02:28:33;98615.91;;;12.38;100.00
41202;BME280;26936;50.524;8.684;2023-04-23T02:30:58;98612.59;;;12.39;100.00
41202;BME280;26936;50.524;8.684;2023-04-23T02:33:24;98607.13;;;12.36;100.00
41202;BME280;26936;50.524;8.684;2023-04-23T02:35:50;98618.03;;;12.28;100.00
41202;BME280;26936;50.524;8.684;2023-04-23T02:38:15;98621.81;;;12.25;100.00
41202;BME280;26936;50.524;8.684;2023-04-23T02:40:40;98617.25;;;12.27;100.00
41202;BME280;26936;50.524;8.684;2023-04-23T02:43:05;98617.25;;;12.27;100.00
41202;BME280;26936;50.524;8.684;2023-04-23T02:45:31;98624.16;;;12.26;100.00
41202;BME280;26936;50.524;8.684;2023-04-23T02:47:56;98621.59;;;12.28;100.00
41202;BME280;26936;50.524;8.684;2023-04-23T02:50:22;98628.22;;;12.25;100.00
41202;BME280;26936;50.524;8.684;2023-04-23T02:52:47;98615.56;;;12.21;100.00
41202;BME280;26936;50.524;8.684;2023-04-23T02:55:13;98615.25;;;12.19;100.00
41202;BME280;26936;50.524;8.684;2023-04-23T02:57:39;98629.97;;;12.23;100.00
41202;BME280;26936;50.524;8.684;2023-04-23T03:00:04;98633.00;;;12.19;100.00
41202;BME280;26936;50.524;8.684;2023-04-23T03:02:33;98632.00;;;12.22;100.00
41202;BME280;26936;50.524;8.684;2023-04-23T03:04:58;98629.69;;;12.21;100.00
41202;BME280;26936;50.524;8.684;2023-04-23T03:07:24;98633.59;;;12.23;100.00
41202;BME280;26936;50.524;8.684;2023-04-23T03:09:49;98629.97;;;12.23;100.00
41202;BME280;26936;50.524;8.684;2023-04-23T03:12:14;98626.38;;;12.22;100.00
41202;BME280;26936;50.524;8.684;2023-04-23T03:14:40;98623.44;;;12.17;100.00
41202;BME280;26936;50.524;8.684;2023-04-23T03:17:05;98627.03;;;12.17;100.00
41202;BME280;26936;50.524;8.684;2023-04-23T03:19:31;98634.44;;;12.15;100.00
41202;BME280;26936;50.524;8.684;2023-04-23T03:21:56;98642.59;;;12.13;100.00
41202;BME280;26936;50.524;8.684;2023-04-23T03:24:21;98638.72;;;12.10;100.00
41202;BME280;26936;50.524;8.684;2023-04-23T03:26:47;98635.59;;;12.08;100.00
41202;BME280;26936;50.524;8.684;2023-04-23T03:29:12;98631.38;;;12.04;100.00
41202;BME280;26936;50.524;8.684;2023-04-23T03:31:37;98626.97;;;12.03;100.00
41202;BME280;26936;50.524;8.684;2023-04-23T03:34:03;98629.22;;;11.99;100.00
41202;BME280;26936;50.524;8.684;2023-04-23T03:36:28;98631.56;;;12.00;100.00
41202;BME280;26936;50.524;8.684;2023-04-23T03:38:53;98629.72;;;11.97;100.00
41202;BME280;26936;50.524;8.684;2023-04-23T03:41:18;98631.91;;;11.93;100.00
41202;BME280;26936;50.524;8.684;2023-04-23T03:43:44;98633.19;;;11.92;100.00
41202;BME280;26936;50.524;8.684;2023-04-23T03:46:09;98629.25;;;11.90;100.00
41202;BME280;26936;50.524;8.684;2023-04-23T03:48:34;98626.44;;;11.90;100.00
41202;BME280;26936;50.524;8.684;2023-04-23T03:51:00;98628.78;;;11.91;100.00
41202;BME280;26936;50.524;8.684;2023-04-23T03:53:25;98636.19;;;11.89;100.00
41202;BME280;26936;50.524;8.684;2023-04-23T03:55:50;98627.72;;;11.89;100.00
41202;BME280;26936;50.524;8.684;2023-04-23T03:58:16;98634.31;;;11.86;100.00
41202;BME280;26936;50.524;8.684;2023-04-23T04:00:41;98637.16;;;11.86;100.00
41202;BME280;26936;50.524;8.684;2023-04-23T04:03:06;98637.63;;;11.84;100.00
41202;BME280;26936;50.524;8.684;2023-04-23T04:05:33;98642.16;;;11.82;100.00
41202;BME280;26936;50.524;8.684;2023-04-23T04:07:58;98641.75;;;11.74;100.00
41202;BME280;26936;50.524;8.684;2023-04-23T04:10:23;98647.41;;;11.74;100.00
41202;BME280;26936;50.524;8.684;2023-04-23T04:12:49;98654.59;;;11.75;100.00
41202;BME280;26936;50.524;8.684;2023-04-23T04:15:14;98651.47;;;11.73;100.00
41202;BME280;26936;50.524;8.684;2023-04-23T04:17:40;98657.28;;;11.70;100.00
41202;BME280;26936;50.524;8.684;2023-04-23T04:20:06;98657.88;;;11.74;100.00
41202;BME280;26936;50.524;8.684;2023-04-23T04:22:38;98662.16;;;11.69;100.00
41202;BME280;26936;50.524;8.684;2023-04-23T04:25:04;98651.81;;;11.66;100.00
41202;BME280;26936;50.524;8.684;2023-04-23T04:27:30;98655.56;;;11.63;100.00
41202;BME280;26936;50.524;8.684;2023-04-23T04:29:58;98653.53;;;11.64;100.00
41202;BME280;26936;50.524;8.684;2023-04-23T04:32:23;98648.41;;;11.53;100.00
41202;BME280;26936;50.524;8.684;2023-04-23T04:34:48;98647.94;;;11.55;100.00
41202;BME280;26936;50.524;8.684;2023-04-23T04:37:14;98659.38;;;11.51;100.00
41202;BME280;26936;50.524;8.684;2023-04-23T04:39:39;98659.41;;;11.42;100.00
41202;BME280;26936;50.524;8.684;2023-04-23T04:42:05;98655.34;;;11.43;100.00
41202;BME280;26936;50.524;8.684;2023-04-23T04:44:31;98655.50;;;11.40;100.00
41202;BME280;26936;50.524;8.684;2023-04-23T04:46:56;98660.50;;;11.45;100.00
41202;BME280;26936;50.524;8.684;2023-04-23T04:49:21;98665.66;;;11.46;100.00
41202;BME280;26936;50.524;8.684;2023-04-23T04:51:47;98675.84;;;11.44;100.00
41202;BME280;26936;50.524;8.684;2023-04-23T04:54:13;98666.63;;;11.43;100.00
41202;BME280;26936;50.524;8.684;2023-04-23T04:56:38;98665.66;;;11.46;100.00
41202;BME280;26936;50.524;8.684;2023-04-23T04:59:03;98662.06;;;11.46;100.00
41202;BME280;26936;50.524;8.684;2023-04-23T05:01:29;98667.53;;;11.49;100.00
41202;BME280;26936;50.524;8.684;2023-04-23T05:03:55;98663.00;;;11.52;100.00
41202;BME280;26936;50.524;8.684;2023-04-23T05:06:20;98666.09;;;11.54;100.00
41202;BME280;26936;50.524;8.684;2023-04-23T05:08:45;98671.41;;;11.61;100.00
41202;BME280;26936;50.524;8.684;2023-04-23T05:11:15;98662.81;;;11.64;100.00
41202;BME280;26936;50.524;8.684;2023-04-23T05:13:41;98673.25;;;11.73;100.00
41202;BME280;26936;50.524;8.684;2023-04-23T05:16:06;98673.38;;;11.78;100.00
41202;BME280;26936;50.524;8.684;2023-04-23T05:18:32;98670.22;;;11.85;100.00
41202;BME280;26936;50.524;8.684;2023-04-23T05:20:57;98659.06;;;11.91;100.00
41202;BME280;26936;50.524;8.684;2023-04-23T05:23:22;98667.94;;;11.98;100.00
41202;BME280;26936;50.524;8.684;2023-04-23T05:25:47;98668.84;;;12.04;100.00
41202;BME280;26936;50.524;8.684;2023-04-23T05:28:14;98668.41;;;12.20;100.00
41202;BME280;26936;50.524;8.684;2023-04-23T05:30:39;98669.16;;;12.30;100.00
41202;BME280;26936;50.524;8.684;2023-04-23T05:33:05;98660.13;;;12.41;100.00
41202;BME280;26936;50.524;8.684;2023-04-23T05:35:30;98662.88;;;12.50;100.00
41202;BME280;26936;50.524;8.684;2023-04-23T05:37:56;98659.47;;;12.60;100.00
41202;BME280;26936;50.524;8.684;2023-04-23T05:40:21;98657.16;;;12.73;100.00
41202;BME280;26936;50.524;8.684;2023-04-23T05:42:46;98666.75;;;12.90;100.00
41202;BME280;26936;50.524;8.684;2023-04-23T05:45:12;98664.25;;;13.36;100.00
41202;BME280;26936;50.524;8.684;2023-04-23T05:47:37;98670.09;;;13.96;100.00
41202;BME280;26936;50.524;8.684;2023-04-23T05:50:03;98665.41;;;14.13;100.00
41202;BME280;26936;50.524;8.684;2023-04-23T05:52:28;98663.22;;;14.03;100.00
41202;BME280;26936;50.524;8.684;2023-04-23T05:54:59;98662.97;;;13.86;100.00
41202;BME280;26936;50.524;8.684;2023-04-23T05:57:25;98658.72;;;13.76;100.00
41202;BME280;26936;50.524;8.684;2023-04-23T05:59:50;98660.59;;;13.64;100.00
41202;BME280;26936;50.524;8.684;2023-04-23T06:02:15;98661.28;;;13.59;100.00
41202;BME280;26936;50.524;8.684;2023-04-23T06:04:41;98670.38;;;13.49;100.00
41202;BME280;26936;50.524;8.684;2023-04-23T06:07:06;98664.91;;;13.45;100.00
41202;BME280;26936;50.524;8.684;2023-04-23T06:09:31;98669.78;;;13.45;100.00
41202;BME280;26936;50.524;8.684;2023-04-23T06:11:57;98671.06;;;13.44;100.00
41202;BME280;26936;50.524;8.684;2023-04-23T06:14:22;98669.88;;;13.50;100.00
41202;BME280;26936;50.524;8.684;2023-04-23T06:16:47;98673.72;;;13.47;100.00
41202;BME280;26936;50.524;8.684;2023-04-23T06:19:12;98682.75;;;13.51;100.00
41202;BME280;26936;50.524;8.684;2023-04-23T06:21:38;98672.03;;;13.55;100.00
41202;BME280;26936;50.524;8.684;2023-04-23T06:24:04;98672.09;;;13.61;100.00
41202;BME280;26936;50.524;8.684;2023-04-23T06:26:30;98677.66;;;13.70;100.00
41202;BME280;26936;50.524;8.684;2023-04-23T06:28:55;98669.53;;;13.78;100.00
41202;BME280;26936;50.524;8.684;2023-04-23T06:31:21;98668.44;;;13.90;100.00
41202;BME280;26936;50.524;8.684;2023-04-23T06:33:46;98662.72;;;14.04;100.00
41202;BME280;26936;50.524;8.684;2023-04-23T06:36:11;98663.84;;;13.92;100.00
41202;BME280;26936;50.524;8.684;2023-04-23T06:38:38;98665.56;;;14.24;100.00
41202;BME280;26936;50.524;8.684;2023-04-23T06:41:05;98662.13;;;15.01;100.00
41202;BME280;26936;50.524;8.684;2023-04-23T06:43:30;98653.22;;;16.06;98.47
41202;BME280;26936;50.524;8.684;2023-04-23T06:45:56;98655.75;;;17.27;90.09
41202;BME280;26936;50.524;8.684;2023-04-23T06:48:22;98651.81;;;18.19;85.42
41202;BME280;26936;50.524;8.684;2023-04-23T06:50:47;98658.47;;;19.06;80.47
41202;BME280;26936;50.524;8.684;2023-04-23T06:53:13;98657.72;;;19.46;77.53
41202;BME280;26936;50.524;8.684;2023-04-23T06:55:39;98655.66;;;20.00;74.29
41202;BME280;26936;50.524;8.684;2023-04-23T06:58:04;98660.28;;;20.76;68.60
41202;BME280;26936;50.524;8.684;2023-04-23T07:00:31;98657.44;;;20.94;65.87
41202;BME280;26936;50.524;8.684;2023-04-23T07:02:56;98657.47;;;21.13;66.42
41202;BME280;26936;50.524;8.684;2023-04-23T07:05:22;98651.44;;;21.35;65.69
41202;BME280;26936;50.524;8.684;2023-04-23T07:07:47;98654.28;;;21.35;63.82
41202;BME280;26936;50.524;8.684;2023-04-23T07:10:12;98658.34;;;21.08;63.01
41202;BME280;26936;50.524;8.684;2023-04-23T07:12:38;98654.72;;;21.58;60.59
41202;BME280;26936;50.524;8.684;2023-04-23T07:15:05;98650.94;;;21.49;59.92
41202;BME280;26936;50.524;8.684;2023-04-23T07:17:31;98640.00;;;22.24;59.58
41202;BME280;26936;50.524;8.684;2023-04-23T07:19:56;98642.81;;;22.56;57.17
41202;BME280;26936;50.524;8.684;2023-04-23T07:22:23;98646.91;;;21.39;60.42
41202;BME280;26936;50.524;8.684;2023-04-23T07:24:48;98651.19;;;20.96;63.10
41202;BME280;26936;50.524;8.684;2023-04-23T07:27:13;98659.25;;;20.55;64.93
41202;BME280;26936;50.524;8.684;2023-04-23T07:29:39;98664.00;;;19.98;68.65
41202;BME280;26936;50.524;8.684;2023-04-23T07:32:04;98653.97;;;19.86;68.45
41202;BME280;26936;50.524;8.684;2023-04-23T07:34:29;98638.44;;;20.36;64.02
41202;BME280;26936;50.524;8.684;2023-04-23T07:36:54;98620.78;;;21.62;57.58
41202;BME280;26936;50.524;8.684;2023-04-23T07:39:21;98618.25;;;22.16;57.63
41202;BME280;26936;50.524;8.684;2023-04-23T07:41:46;98620.03;;;22.84;57.11
41202;BME280;26936;50.524;8.684;2023-04-23T07:44:12;98625.94;;;23.46;54.75
41202;BME280;26936;50.524;8.684;2023-04-23T07:46:37;98617.66;;;23.83;52.43
41202;BME280;26936;50.524;8.684;2023-04-23T07:49:02;98608.59;;;24.49;50.37
41202;BME280;26936;50.524;8.684;2023-04-23T07:51:28;98609.03;;;24.60;50.76
41202;BME280;26936;50.524;8.684;2023-04-23T07:53:53;98607.59;;;25.32;47.66
41202;BME280;26936;50.524;8.684;2023-04-23T07:56:19;98603.63;;;24.92;47.73
41202;BME280;26936;50.524;8.684;2023-04-23T07:58:48;98597.44;;;24.17;49.01
41202;BME280;26936;50.524;8.684;2023-04-23T08:01:14;98593.38;;;24.13;48.98
41202;BME280;26936;50.524;8.684;2023-04-23T08:03:39;98591.53;;;24.58;49.54
41202;BME280;26936;50.524;8.684;2023-04-23T08:06:05;98601.22;;;24.12;50.43
41202;BME280;26936;50.524;8.684;2023-04-23T08:08:30;98599.59;;;24.88;49.22
41202;BME280;26936;50.524;8.684;2023-04-23T08:10:57;98600.19;;;24.58;50.13
41202;BME280;26936;50.524;8.684;2023-04-23T08:13:22;98601.50;;;24.57;49.05
41202;BME280;26936;50.524;8.684;2023-04-23T08:15:47;98610.78;;;24.07;50.38
41202;BME280;26936;50.524;8.684;2023-04-23T08:18:13;98596.81;;;23.90;51.36
41202;BME280;26936;50.524;8.684;2023-04-23T08:20:39;98595.00;;;24.00;51.05
41202;BME280;26936;50.524;8.684;2023-04-23T08:23:04;98598.88;;;24.03;51.17
41202;BME280;26936;50.524;8.684;2023-04-23T08:25:29;98593.53;;;24.07;52.48
41202;BME280;26936;50.524;8.684;2023-04-23T08:27:54;98592.34;;;24.02;53.09
41202;BME280;26936;50.524;8.684;2023-04-23T08:30:20;98592.81;;;23.32;53.26
41202;BME280;26936;50.524;8.684;2023-04-23T08:32:48;98579.84;;;22.84;55.60
41202;BME280;26936;50.524;8.684;2023-04-23T08:35:13;98584.50;;;22.61;55.83
41202;BME280;26936;50.524;8.684;2023-04-23T08:37:38;98580.75;;;21.88;58.07
41202;BME280;26936;50.524;8.684;2023-04-23T08:40:05;98584.50;;;21.83;58.64
41202;BME280;26936;50.524;8.684;2023-04-23T08:42:52;98581.94;;;21.47;56.11
41202;BME280;26936;50.524;8.684;2023-04-23T08:45:20;98580.22;;;22.02;54.84
41202;BME280;26936;50.524;8.684;2023-04-23T08:47:46;98578.53;;;21.94;56.81
41202;BME280;26936;50.524;8.684;2023-04-23T08:50:15;98577.22;;;22.21;57.64
41202;BME280;26936;50.524;8.684;2023-04-23T08:52:46;98571.91;;;22.77;55.83
41202;BME280;26936;50.524;8.684;2023-04-23T08:55:12;98574.13;;;23.38;54.96
41202;BME280;26936;50.524;8.684;2023-04-23T08:57:39;98574.47;;;23.01;55.07
41202;BME280;26936;50.524;8.684;2023-04-23T09:00:07;98566.06;;;22.56;56.31
41202;BME280;26936;50.524;8.684;2023-04-23T09:02:33;98569.25;;;21.11;59.32
41202;BME280;26936;50.524;8.684;2023-04-23T09:05:01;98567.41;;;20.58;61.07
41202;BME280;26936;50.524;8.684;2023-04-23T09:07:27;98574.25;;;19.83;63.40
41202;BME280;26936;50.524;8.684;2023-04-23T09:09:52;98580.00;;;18.83;69.05
41202;BME280;26936;50.524;8.684;2023-04-23T09:12:18;98568.22;;;18.57;69.16
41202;BME280;26936;50.524;8.684;2023-04-23T09:14:45;98570.81;;;17.87;72.38
41202;BME280;26936;50.524;8.684;2023-04-23T09:17:10;98567.75;;;17.63;74.31
41202;BME280;26936;50.524;8.684;2023-04-23T09:19:35;98572.44;;;17.32;78.14
41202;BME280;26936;50.524;8.684;2023-04-23T09:22:03;98576.78;;;16.84;81.56
41202;BME280;26936;50.524;8.684;2023-04-23T09:24:28;98559.22;;;16.80;81.59
41202;BME280;26936;50.524;8.684;2023-04-23T09:26:54;98546.81;;;16.83;81.30
41202;BME280;26936;50.524;8.684;2023-04-23T09:29:21;98547.09;;;17.18;79.99
41202;BME280;26936;50.524;8.684;2023-04-23T09:31:50;98535.44;;;17.21;79.16
41202;BME280;26936;50.524;8.684;2023-04-23T09:34:19;98546.53;;;17.41;77.45
41202;BME280;26936;50.524;8.684;2023-04-23T09:36:48;98541.13;;;17.27;79.35
41202;BME280;26936;50.524;8.684;2023-04-23T09:39:20;98531.28;;;17.39;78.92
41202;BME280;26936;50.524;8.684;2023-04-23T09:41:46;98546.31;;;17.17;77.33
41202;BME280;26936;50.524;8.684;2023-04-23T09:44:16;98545.25;;;17.70;76.90
41202;BME280;26936;50.524;8.684;2023-04-23T09:46:42;98535.25;;;18.10;76.35
41202;BME280;26936;50.524;8.684;2023-04-23T09:49:09;98548.34;;;18.86;72.40
41202;BME280;26936;50.524;8.684;2023-04-23T09:51:38;98544.22;;;20.25;61.55
41202;BME280;26936;50.524;8.684;2023-04-23T09:54:10;98541.25;;;20.67;57.00
41202;BME280;26936;50.524;8.684;2023-04-23T09:56:36;98547.69;;;21.42;55.40
41202;BME280;26936;50.524;8.684;2023-04-23T09:59:01;98540.47;;;21.80;55.73
41202;BME280;26936;50.524;8.684;2023-04-23T10:01:27;98537.72;;;21.30;54.65
41202;BME280;26936;50.524;8.684;2023-04-23T10:03:54;98533.97;;;21.03;56.07
41202;BME280;26936;50.524;8.684;2023-04-23T10:06:26;98536.31;;;20.49;57.88
41202;BME280;26936;50.524;8.684;2023-04-23T10:08:54;98535.16;;;19.96;58.19
41202;BME280;26936;50.524;8.684;2023-04-23T10:11:21;98534.31;;;19.77;58.67
41202;BME280;26936;50.524;8.684;2023-04-23T10:13:47;98532.88;;;19.41;59.17
41202;BME280;26936;50.524;8.684;2023-04-23T10:16:13;98535.25;;;19.37;60.08
41202;BME280;26936;50.524;8.684;2023-04-23T10:18:38;98536.66;;;19.79;60.75
41202;BME280;26936;50.524;8.684;2023-04-23T10:21:04;98540.56;;;20.43;59.36
41202;BME280;26936;50.524;8.684;2023-04-23T10:23:30;98525.19;;;21.01;54.26
41202;BME280;26936;50.524;8.684;2023-04-23T10:25:58;98524.38;;;21.32;53.60
41202;BME280;26936;50.524;8.684;2023-04-23T10:28:25;98530.28;;;20.90;50.78
41202;BME280;26936;50.524;8.684;2023-04-23T10:30:56;98528.84;;;21.15;51.46
41202;BME280;26936;50.524;8.684;2023-04-23T10:33:23;98526.25;;;21.30;50.09
41202;BME280;26936;50.524;8.684;2023-04-23T10:35:50;98524.31;;;21.51;49.42
41202;BME280;26936;50.524;8.684;2023-04-23T10:38:17;98525.09;;;21.07;50.91
41202;BME280;26936;50.524;8.684;2023-04-23T10:40:44;98519.72;;;20.29;51.51
41202;BME280;26936;50.524;8.684;2023-04-23T10:43:11;98519.16;;;20.86;49.92
41202;BME280;26936;50.524;8.684;2023-04-23T10:45:36;98510.00;;;20.88;51.06
41202;BME280;26936;50.524;8.684;2023-04-23T10:48:02;98508.88;;;20.78;49.68
41202;BME280;26936;50.524;8.684;2023-04-23T10:50:29;98509.72;;;20.17;49.09
41202;BME280;26936;50.524;8.684;2023-04-23T10:52:58;98506.13;;;19.68;52.96
41202;BME280;26936;50.524;8.684;2023-04-23T10:55:27;98502.56;;;19.62;55.79
41202;BME280;26936;50.524;8.684;2023-04-23T10:58:06;98503.59;;;19.35;55.25
41202;BME280;26936;50.524;8.684;2023-04-23T11:03:35;98494.69;;;19.15;56.86
41202;BME280;26936;50.524;8.684;2023-04-23T11:06:04;98499.44;;;19.36;55.20
41202;BME280;26936;50.524;8.684;2023-04-23T11:08:30;98498.94;;;19.32;57.48
41202;BME280;26936;50.524;8.684;2023-04-23T11:11:00;98496.44;;;19.23;59.16
41202;BME280;26936;50.524;8.684;2023-04-23T11:13:27;98489.13;;;19.28;59.01
41202;BME280;26936;50.524;8.684;2023-04-23T11:16:29;98503.78;;;19.43;56.91
41202;BME280;26936;50.524;8.684;2023-04-23T11:18:58;98490.16;;;19.01;55.44
41202;BME280;26936;50.524;8.684;2023-04-23T11:21:56;98487.66;;;18.86;56.90
41202;BME280;26936;50.524;8.684;2023-04-23T11:24:34;98482.41;;;18.96;57.64
41202;BME280;26936;50.524;8.684;2023-04-23T11:27:11;98483.16;;;18.96;57.38
41202;BME280;26936;50.524;8.684;2023-04-23T11:29:38;98484.91;;;19.05;56.88
41202;BME280;26936;50.524;8.684;2023-04-23T11:32:04;98480.88;;;19.19;56.75
41202;BME280;26936;50.524;8.684;2023-04-23T11:34:35;98477.44;;;19.31;56.12
41202;BME280;26936;50.524;8.684;2023-04-23T11:37:01;98474.56;;;19.31;52.79
41202;BME280;26936;50.524;8.684;2023-04-23T11:39:26;98472.03;;;19.22;55.72
41202;BME280;26936;50.524;8.684;2023-04-23T11:41:52;98463.16;;;19.02;57.50
41202;BME280;26936;50.524;8.684;2023-04-23T11:44:19;98464.81;;;18.56;57.24
41202;BME280;26936;50.524;8.684;2023-04-23T11:46:46;98462.88;;;18.70;58.50
41202;BME280;26936;50.524;8.684;2023-04-23T11:49:12;98466.34;;;18.57;59.20
41202;BME280;26936;50.524;8.684;2023-04-23T11:51:42;98462.53;;;18.49;59.36
41202;BME280;26936;50.524;8.684;2023-04-23T11:54:11;98461.97;;;18.56;58.23
41202;BME280;26936;50.524;8.684;2023-04-23T11:56:38;98453.63;;;18.58;60.14
41202;BME280;26936;50.524;8.684;2023-04-23T11:59:04;98447.53;;;18.78;60.37
41202;BME280;26936;50.524;8.684;2023-04-23T12:01:42;98449.59;;;18.78;59.48
41202;BME280;26936;50.524;8.684;2023-04-23T12:04:19;98440.66;;;18.63;61.41
41202;BME280;26936;50.524;8.684;2023-04-23T12:06:46;98442.44;;;18.66;59.72
41202;BME280;26936;50.524;8.684;2023-04-23T12:09:13;98438.91;;;18.54;59.40
41202;BME280;26936;50.524;8.684;2023-04-23T12:11:40;98439.34;;;18.23;60.01
41202;BME280;26936;50.524;8.684;2023-04-23T12:14:05;98435.22;;;18.19;59.11
41202;BME280;26936;50.524;8.684;2023-04-23T12:19:16;98426.97;;;18.10;59.16
41202;BME280;26936;50.524;8.684;2023-04-23T12:21:50;98429.19;;;17.87;58.67
41202;BME280;26936;50.524;8.684;2023-04-23T12:24:19;98422.81;;;17.65;60.15
41202;BME280;26936;50.524;8.684;2023-04-23T12:26:48;98422.53;;;17.68;60.79
41202;BME280;26936;50.524;8.684;2023-04-23T12:29:16;98417.91;;;17.65;60.86
41202;BME280;26936;50.524;8.684;2023-04-23T12:31:42;98429.22;;;17.76;62.41
41202;BME280;26936;50.524;8.684;2023-04-23T12:34:08;98421.16;;;17.86;62.59
41202;BME280;26936;50.524;8.684;2023-04-23T12:36:37;98427.19;;;17.66;59.71
41202;BME280;26936;50.524;8.684;2023-04-23T12:39:43;98426.84;;;17.91;61.45
41202;BME280;26936;50.524;8.684;2023-04-23T12:42:08;98432.31;;;18.24;60.60
41202;BME280;26936;50.524;8.684;2023-04-23T12:44:36;98422.34;;;18.07;60.38
41202;BME280;26936;50.524;8.684;2023-04-23T12:47:03;98421.19;;;18.26;61.34
41202;BME280;26936;50.524;8.684;2023-04-23T12:49:29;98415.22;;;18.65;59.78
41202;BME280;26936;50.524;8.684;2023-04-23T12:51:56;98414.47;;;18.94;58.00
41202;BME280;26936;50.524;8.684;2023-04-23T12:54:31;98408.13;;;18.77;58.21
41202;BME280;26936;50.524;8.684;2023-04-23T12:56:59;98405.38;;;18.66;57.40